X  CloseMetar Aviation Weather Data     LEVC Valencia

Temperatura

15°C Temperatura

12°C Punto de rocío

82% Humedad



Viento

39 KM/H

24 MPH

11 M/S

21 KTS



40°
NE
Condiciones actuales

Lluvia ligera Lluvia ligera
Presión 1017.92 (hPa) - 30.06 (in)
Visibilidad 3.7 (mi) - 6 (km)
Aeropuerto
Airport-code LEVC

localidad Valencia 18 (km)

Metar:
LEVC 192000Z 04021G33KT 010V070 6000 -RA BKN018 BKN025 15/12 Q1018 NOSIG

Hora: 19-04-2019 22:00